createdAt,value
2023-02-19T00:00:59.426Z,17.45
2023-02-19T00:03:27.287Z,19.48
2023-02-19T00:05:54.605Z,20.33
2023-02-19T00:08:22.042Z,18.38
2023-02-19T00:10:49.364Z,19.88
2023-02-19T00:13:16.883Z,19.30
2023-02-19T00:15:44.158Z,19.30
2023-02-19T00:18:11.549Z,16.70
2023-02-19T00:20:38.839Z,18.70
2023-02-19T00:23:06.145Z,18.15
2023-02-19T00:25:36.973Z,18.98
2023-02-19T00:28:04.735Z,17.92
2023-02-19T00:30:32.068Z,17.70
2023-02-19T00:32:59.482Z,19.58
2023-02-19T00:35:26.758Z,19.13
2023-02-19T00:37:54.080Z,18.95
2023-02-19T00:40:21.408Z,18.80
2023-02-19T00:42:48.709Z,18.60
2023-02-19T00:45:16.872Z,20.50
2023-02-19T00:47:44.217Z,19.35
2023-02-19T00:50:11.626Z,20.08
2023-02-19T00:52:38.992Z,18.48
2023-02-19T00:55:06.503Z,17.70
2023-02-19T00:57:33.859Z,18.38
2023-02-19T01:00:01.232Z,18.08
2023-02-19T01:02:28.569Z,19.17
2023-02-19T01:04:56.097Z,17.52
2023-02-19T01:07:23.494Z,19.37
2023-02-19T01:09:51.947Z,18.70
2023-02-19T01:12:19.322Z,17.40
2023-02-19T01:14:46.997Z,18.38
2023-02-19T01:17:14.343Z,17.08
2023-02-19T01:19:41.688Z,17.17
2023-02-19T01:22:09.180Z,17.77
2023-02-19T01:24:36.415Z,18.88
2023-02-19T01:27:03.909Z,16.77
2023-02-19T01:29:31.220Z,17.15
2023-02-19T01:31:58.634Z,17.93
2023-02-19T01:34:27.149Z,17.88
2023-02-19T01:36:54.547Z,17.42
2023-02-19T01:39:22.750Z,17.02
2023-02-19T01:41:50.208Z,18.55
2023-02-19T01:44:18.518Z,17.70
2023-02-19T01:46:51.606Z,15.93
2023-02-19T01:49:38.906Z,16.55
2023-02-19T01:52:22.121Z,13.57
2023-02-19T01:54:49.623Z,15.18
2023-02-19T01:57:19.252Z,12.73
2023-02-19T01:59:47.833Z,14.13
2023-02-19T02:02:15.357Z,15.70
2023-02-19T02:04:42.859Z,14.75
2023-02-19T02:07:28.730Z,15.32
2023-02-19T02:10:22.220Z,16.00
2023-02-19T02:12:50.243Z,16.02
2023-02-19T02:15:17.674Z,16.38
2023-02-19T02:17:57.580Z,15.73
2023-02-19T02:20:40.199Z,15.15
2023-02-19T02:23:24.689Z,16.30
2023-02-19T02:26:20.369Z,16.17
2023-02-19T02:28:47.779Z,16.17
2023-02-19T02:31:17.815Z,16.30
2023-02-19T02:33:51.916Z,17.20
2023-02-19T02:36:22.343Z,15.73
2023-02-19T02:38:50.037Z,16.17
2023-02-19T02:41:21.270Z,16.20
2023-02-19T02:43:48.712Z,15.48
2023-02-19T02:46:34.283Z,16.20
2023-02-19T02:49:20.822Z,16.13
2023-02-19T02:51:51.325Z,16.73
2023-02-19T02:54:51.221Z,17.27
2023-02-19T02:57:20.897Z,16.90
2023-02-19T02:59:55.038Z,16.48
2023-02-19T03:02:25.787Z,15.67
2023-02-19T03:05:38.333Z,15.98
2023-02-19T03:08:10.154Z,16.27
2023-02-19T03:10:45.988Z,15.23
2023-02-19T03:13:54.054Z,15.82
2023-02-19T03:16:43.709Z,16.00
2023-02-19T03:19:19.145Z,17.00
2023-02-19T03:21:50.292Z,14.38
2023-02-19T03:24:36.044Z,14.43
2023-02-19T03:27:03.474Z,15.80
2023-02-19T03:29:36.729Z,15.87
2023-02-19T03:32:19.168Z,12.25
2023-02-19T03:35:14.103Z,16.65
2023-02-19T03:37:47.207Z,15.48
2023-02-19T03:40:15.531Z,16.15
2023-02-19T03:43:01.573Z,17.27
2023-02-19T03:45:55.934Z,15.68
2023-02-19T03:48:35.581Z,14.90
2023-02-19T03:51:32.569Z,15.80
2023-02-19T03:54:31.610Z,14.60
2023-02-19T03:57:02.166Z,14.97
2023-02-19T03:59:35.748Z,15.18
2023-02-19T04:02:14.200Z,14.88
2023-02-19T04:04:45.151Z,14.40
2023-02-19T04:07:12.778Z,14.55
2023-02-19T04:09:43.684Z,15.03
2023-02-19T04:12:14.804Z,14.50
2023-02-19T04:14:52.558Z,13.82
2023-02-19T04:17:31.564Z,14.55
2023-02-19T04:19:58.936Z,15.60
2023-02-19T04:22:26.212Z,14.93
2023-02-19T04:24:53.652Z,14.32
2023-02-19T04:27:21.003Z,13.95
2023-02-19T04:29:48.364Z,15.10
2023-02-19T04:32:15.606Z,15.85
2023-02-19T04:34:42.925Z,15.23
2023-02-19T04:37:10.262Z,16.73
2023-02-19T04:39:37.694Z,15.15
2023-02-19T04:42:05.013Z,14.30
2023-02-19T04:44:33.541Z,14.57
2023-02-19T04:47:01.005Z,15.30
2023-02-19T04:49:28.285Z,14.80
2023-02-19T04:51:55.522Z,14.57
2023-02-19T04:54:22.891Z,14.10
2023-02-19T04:56:50.956Z,14.48
2023-02-19T04:59:18.344Z,13.90
2023-02-19T05:01:45.590Z,14.88
2023-02-19T05:04:13.032Z,13.13
2023-02-19T05:06:40.251Z,13.80
2023-02-19T05:09:07.593Z,15.13
2023-02-19T05:11:34.881Z,14.77
2023-02-19T05:14:02.220Z,15.10
2023-02-19T05:16:29.523Z,15.77
2023-02-19T05:18:56.845Z,15.18
2023-02-19T05:21:24.166Z,15.77
2023-02-19T05:23:51.609Z,14.90
2023-02-19T05:26:20.598Z,14.95
2023-02-19T05:28:49.390Z,15.05
2023-02-19T05:31:16.840Z,15.43
2023-02-19T05:33:45.883Z,14.85
2023-02-19T05:36:13.522Z,13.87
2023-02-19T05:38:41.255Z,14.40
2023-02-19T05:41:18.552Z,13.77
2023-02-19T05:43:46.593Z,15.20
2023-02-19T05:46:15.834Z,14.18
2023-02-19T05:48:43.302Z,14.87
2023-02-19T05:51:12.970Z,16.20
2023-02-19T05:53:40.757Z,15.65
2023-02-19T05:56:26.350Z,13.48
2023-02-19T05:58:54.160Z,15.02
2023-02-19T06:01:22.625Z,15.43
2023-02-19T06:03:50.068Z,15.13
2023-02-19T06:06:18.292Z,15.75
2023-02-19T06:08:45.626Z,13.70
2023-02-19T06:11:13.075Z,14.68
2023-02-19T06:13:40.415Z,16.43
2023-02-19T06:16:07.976Z,13.98
2023-02-19T06:18:35.468Z,15.25
2023-02-19T06:21:06.702Z,14.98
2023-02-19T06:23:34.159Z,16.40
2023-02-19T06:26:09.378Z,15.73
2023-02-19T06:28:37.304Z,15.40
2023-02-19T06:31:05.409Z,17.48
2023-02-19T06:33:32.929Z,14.98
2023-02-19T06:36:01.408Z,16.65
2023-02-19T06:38:28.837Z,18.77
2023-02-19T06:40:56.215Z,16.50
2023-02-19T06:43:23.545Z,14.57
2023-02-19T06:45:50.796Z,14.52
2023-02-19T06:48:18.208Z,15.35
2023-02-19T06:50:45.470Z,15.33
2023-02-19T06:53:12.887Z,16.17
2023-02-19T06:55:40.595Z,17.08
2023-02-19T06:58:08.079Z,16.25
2023-02-19T07:00:35.373Z,15.90
2023-02-19T07:03:05.400Z,14.27
2023-02-19T07:05:32.907Z,14.27
2023-02-19T07:08:00.178Z,14.10
2023-02-19T07:10:27.508Z,15.70
2023-02-19T07:12:54.740Z,13.27
2023-02-19T07:15:22.088Z,14.43
2023-02-19T07:17:49.370Z,15.27
2023-02-19T07:20:16.705Z,13.65
2023-02-19T07:22:44.028Z,15.45
2023-02-19T07:25:11.401Z,13.40
2023-02-19T07:27:38.708Z,13.40
2023-02-19T07:30:06.362Z,15.20
2023-02-19T07:32:33.627Z,14.63
2023-02-19T07:35:00.943Z,15.13
2023-02-19T07:37:28.197Z,14.73
2023-02-19T07:39:55.522Z,14.37
2023-02-19T07:42:22.776Z,14.88
2023-02-19T07:44:50.326Z,14.30
2023-02-19T07:47:17.632Z,14.02
2023-02-19T07:49:44.955Z,14.52
2023-02-19T07:52:12.378Z,15.90
2023-02-19T07:54:39.799Z,15.13
2023-02-19T07:57:07.055Z,13.65
2023-02-19T07:59:34.980Z,14.80
2023-02-19T08:02:21.133Z,15.75
2023-02-19T08:04:48.690Z,16.00
2023-02-19T08:07:15.959Z,15.60
2023-02-19T08:09:43.277Z,15.63
2023-02-19T08:12:29.833Z,15.32
2023-02-19T08:14:57.994Z,16.50
2023-02-19T08:17:25.332Z,15.47
2023-02-19T08:19:52.819Z,16.20
2023-02-19T08:22:20.067Z,15.93
2023-02-19T08:24:47.416Z,15.23
2023-02-19T08:27:14.692Z,14.82
2023-02-19T08:29:42.035Z,14.70
2023-02-19T08:32:09.355Z,14.55
2023-02-19T08:34:37.218Z,14.88
2023-02-19T08:37:04.463Z,14.38
2023-02-19T08:39:32.485Z,14.45
2023-02-19T08:41:59.856Z,15.33
2023-02-19T08:44:27.207Z,14.77
2023-02-19T08:46:54.523Z,14.73
2023-02-19T08:49:21.872Z,14.10
2023-02-19T08:51:49.118Z,14.60
2023-02-19T08:54:16.486Z,14.53
2023-02-19T08:56:43.781Z,15.32
2023-02-19T08:59:11.097Z,14.88
2023-02-19T09:01:38.389Z,15.57
2023-02-19T09:04:05.830Z,14.73
2023-02-19T09:06:33.134Z,15.33
2023-02-19T09:09:00.423Z,14.80
2023-02-19T09:11:27.803Z,14.55
2023-02-19T09:13:56.029Z,14.93
2023-02-19T09:16:23.347Z,15.38
2023-02-19T09:18:50.861Z,17.90
2023-02-19T09:21:18.182Z,15.65
2023-02-19T09:23:45.553Z,15.45
2023-02-19T09:26:14.119Z,15.05
2023-02-19T09:28:42.068Z,16.35
2023-02-19T09:31:14.091Z,15.07
2023-02-19T09:33:44.653Z,16.70
2023-02-19T09:36:14.760Z,15.43
2023-02-19T09:38:42.368Z,14.82
2023-02-19T09:41:27.907Z,16.92
2023-02-19T09:43:55.553Z,15.17
2023-02-19T09:46:35.164Z,16.50
2023-02-19T09:49:07.721Z,16.20
2023-02-19T09:51:35.382Z,15.38
2023-02-19T09:54:02.652Z,15.63
2023-02-19T09:56:30.001Z,16.17
2023-02-19T09:58:58.183Z,16.17
2023-02-19T10:01:27.062Z,15.52
2023-02-19T10:03:54.313Z,15.93
2023-02-19T10:06:23.594Z,14.27
2023-02-19T10:08:52.867Z,14.77
2023-02-19T10:11:20.309Z,13.27
2023-02-19T10:14:09.565Z,14.05
2023-02-19T10:16:40.796Z,15.35
2023-02-19T10:19:12.162Z,13.82
2023-02-19T10:21:39.675Z,11.37
2023-02-19T10:24:07.097Z,12.30
2023-02-19T10:26:37.624Z,13.40
2023-02-19T10:29:05.312Z,14.93
2023-02-19T10:31:33.289Z,13.45
2023-02-19T10:34:02.172Z,12.77
2023-02-19T10:36:42.614Z,13.45
2023-02-19T10:39:22.178Z,14.32
2023-02-19T10:41:50.731Z,13.68
2023-02-19T10:44:24.862Z,12.65
2023-02-19T10:46:52.881Z,12.50
2023-02-19T10:49:32.742Z,11.68
2023-02-19T10:52:02.677Z,11.48
2023-02-19T10:54:33.143Z,11.88
2023-02-19T10:57:15.733Z,10.82
2023-02-19T10:59:53.721Z,12.10
2023-02-19T11:02:21.641Z,12.13
2023-02-19T11:05:17.066Z,13.00
2023-02-19T11:07:45.392Z,13.05
2023-02-19T11:10:44.475Z,12.60
2023-02-19T11:13:24.685Z,11.13
2023-02-19T11:15:53.433Z,10.82
2023-02-19T11:18:33.397Z,12.90
2023-02-19T11:21:05.149Z,13.50
2023-02-19T11:23:37.327Z,9.30
2023-02-19T11:26:15.604Z,7.83
2023-02-19T11:28:42.960Z,8.10
2023-02-19T11:31:19.510Z,10.07
2023-02-19T11:33:56.866Z,10.13
2023-02-19T11:36:34.130Z,11.32
2023-02-19T11:39:16.711Z,11.87
2023-02-19T11:42:29.575Z,10.27
2023-02-19T11:45:18.939Z,9.65
2023-02-19T11:47:54.703Z,9.13
2023-02-19T11:50:32.630Z,2.35
2023-02-19T11:53:02.918Z,5.27
2023-02-19T11:56:07.719Z,5.30
2023-02-19T11:59:16.733Z,2.90
2023-02-19T12:01:59.002Z,2.80
2023-02-19T12:04:41.578Z,2.10
2023-02-19T12:07:37.625Z,4.50
2023-02-19T12:10:17.300Z,5.55
2023-02-19T12:12:47.598Z,6.22
2023-02-19T12:15:27.162Z,6.45
2023-02-19T12:18:23.631Z,6.55
2023-02-19T12:21:24.963Z,7.30
2023-02-19T12:24:43.118Z,7.07
2023-02-19T12:27:41.316Z,7.70
2023-02-19T12:30:33.730Z,6.45
2023-02-19T12:33:18.514Z,6.60
2023-02-19T12:36:04.103Z,6.57
2023-02-19T12:38:37.210Z,6.40
2023-02-19T12:41:13.214Z,7.50
2023-02-19T12:43:42.050Z,6.03
2023-02-19T12:46:14.081Z,5.30
2023-02-19T12:49:02.650Z,2.27
2023-02-19T12:51:51.014Z,2.00
2023-02-19T12:54:27.216Z,1.50
2023-02-19T12:57:09.155Z,1.30
2023-02-19T12:59:39.544Z,1.20
2023-02-19T13:02:13.027Z,1.17
2023-02-19T13:04:54.801Z,0.88
2023-02-19T13:07:40.165Z,0.70
2023-02-19T13:10:22.640Z,0.70
2023-02-19T13:12:50.020Z,0.50
2023-02-19T13:15:35.895Z,0.60
2023-02-19T13:18:03.914Z,0.60
2023-02-19T13:20:35.748Z,0.70
2023-02-19T13:23:55.046Z,0.50
2023-02-19T13:26:25.442Z,0.60
2023-02-19T13:29:31.327Z,0.60
2023-02-19T13:32:01.374Z,0.63
2023-02-19T13:34:44.662Z,0.60
2023-02-19T13:37:12.017Z,0.60
2023-02-19T13:39:48.742Z,0.60
2023-02-19T13:42:27.319Z,0.70
2023-02-19T13:44:57.923Z,0.50
2023-02-19T13:47:54.037Z,0.77
2023-02-19T13:50:32.210Z,0.80
2023-02-19T13:53:08.257Z,0.70
2023-02-19T13:55:50.941Z,0.70
2023-02-19T13:58:33.825Z,1.00
2023-02-19T14:01:05.327Z,1.80
2023-02-19T14:03:55.443Z,0.95
2023-02-19T14:06:22.890Z,0.70
2023-02-19T14:08:56.785Z,0.60
2023-02-19T14:11:42.503Z,0.60
2023-02-19T14:14:28.674Z,0.60
2023-02-19T14:17:01.352Z,0.70
2023-02-19T14:19:52.887Z,0.60
2023-02-19T14:22:47.642Z,0.60
2023-02-19T14:25:27.116Z,0.50
2023-02-19T14:27:55.535Z,0.77
2023-02-19T14:30:22.970Z,0.50
2023-02-19T14:32:54.618Z,0.65
2023-02-19T14:35:29.335Z,0.80
2023-02-19T14:37:56.894Z,0.70
2023-02-19T14:40:27.836Z,0.50
2023-02-19T14:42:57.312Z,0.73
2023-02-19T14:45:24.895Z,0.60
2023-02-19T14:47:52.102Z,0.50
2023-02-19T14:50:30.615Z,0.60
2023-02-19T14:53:03.244Z,0.70
2023-02-19T14:55:32.788Z,0.60
2023-02-19T14:58:01.262Z,0.50
2023-02-19T15:00:34.684Z,0.70
2023-02-19T15:03:02.793Z,0.50
2023-02-19T15:05:31.690Z,0.70
2023-02-19T15:08:01.223Z,0.50
2023-02-19T15:10:29.583Z,0.50
2023-02-19T15:12:59.347Z,0.40
2023-02-19T15:15:29.265Z,0.50
2023-02-19T15:17:57.286Z,0.68
2023-02-19T15:20:25.868Z,0.35
2023-02-19T15:22:53.762Z,0.55
2023-02-19T15:25:22.674Z,0.47
2023-02-19T15:27:50.337Z,0.52
2023-02-19T15:30:24.847Z,0.60
2023-02-19T15:32:58.739Z,0.63
2023-02-19T15:35:29.674Z,0.50
2023-02-19T15:37:57.154Z,0.50
2023-02-19T15:40:30.302Z,0.50
2023-02-19T15:42:57.973Z,0.63
2023-02-19T15:45:29.664Z,0.70
2023-02-19T15:48:04.855Z,0.60
2023-02-19T15:50:33.876Z,0.40
2023-02-19T15:53:17.337Z,0.50
2023-02-19T15:56:03.001Z,0.60
2023-02-19T15:58:31.613Z,0.55
2023-02-19T16:01:14.921Z,0.60
2023-02-19T16:03:42.350Z,1.13
2023-02-19T16:06:15.136Z,1.00
2023-02-19T16:08:43.720Z,1.30
2023-02-19T16:11:23.131Z,1.30
2023-02-19T16:13:51.298Z,1.67
2023-02-19T16:16:31.518Z,1.40
2023-02-19T16:18:58.865Z,1.20
2023-02-19T16:21:26.598Z,1.10
2023-02-19T16:24:01.638Z,1.20
2023-02-19T16:26:28.982Z,1.00
2023-02-19T16:28:56.202Z,1.00
2023-02-19T16:31:23.773Z,1.10
2023-02-19T16:33:51.185Z,1.02
2023-02-19T16:36:37.314Z,0.90
2023-02-19T16:39:07.663Z,1.10
2023-02-19T16:41:41.085Z,0.90
2023-02-19T16:44:46.655Z,1.60
2023-02-19T16:47:24.767Z,1.60
2023-02-19T16:49:52.110Z,1.42
2023-02-19T16:52:19.431Z,1.83
2023-02-19T16:54:47.978Z,1.80
2023-02-19T16:57:15.370Z,1.30
2023-02-19T16:59:42.802Z,1.10
2023-02-19T17:02:14.699Z,0.80
2023-02-19T17:04:42.064Z,0.80
2023-02-19T17:07:14.711Z,0.90
2023-02-19T17:09:42.189Z,1.27
2023-02-19T17:12:13.494Z,1.10
2023-02-19T17:14:41.022Z,1.23
2023-02-19T17:17:08.517Z,1.10
2023-02-19T17:19:35.979Z,1.53
2023-02-19T17:22:04.016Z,1.65
2023-02-19T17:24:31.920Z,2.40
2023-02-19T17:26:59.230Z,2.45
2023-02-19T17:29:28.569Z,3.38
2023-02-19T17:31:55.935Z,3.30
2023-02-19T17:34:23.352Z,2.92
2023-02-19T17:36:52.048Z,3.10
2023-02-19T17:39:19.585Z,2.75
2023-02-19T17:41:46.897Z,3.17
2023-02-19T17:44:14.290Z,3.30
2023-02-19T17:46:41.657Z,3.33
2023-02-19T17:49:10.905Z,3.55
2023-02-19T17:51:38.263Z,2.50
2023-02-19T17:54:08.242Z,2.33
2023-02-19T17:56:36.235Z,2.20
2023-02-19T17:59:03.622Z,1.95
2023-02-19T18:01:30.937Z,2.60
2023-02-19T18:03:58.323Z,2.72
2023-02-19T18:06:25.732Z,2.40
2023-02-19T18:08:53.292Z,2.30
2023-02-19T18:11:22.181Z,2.00
2023-02-19T18:13:50.621Z,1.90
2023-02-19T18:16:18.194Z,1.95
2023-02-19T18:18:45.520Z,1.70
2023-02-19T18:21:13.561Z,1.00
2023-02-19T18:23:41.165Z,0.90
2023-02-19T18:26:10.430Z,1.23
2023-02-19T18:28:37.932Z,1.15
2023-02-19T18:31:05.461Z,1.40
2023-02-19T18:33:33.654Z,1.13
2023-02-19T18:36:01.219Z,1.25
2023-02-19T18:38:28.672Z,1.73
2023-02-19T18:40:58.626Z,1.90
2023-02-19T18:43:26.153Z,1.60
2023-02-19T18:45:53.575Z,2.20
2023-02-19T18:48:20.909Z,2.13
2023-02-19T18:50:48.246Z,2.15
2023-02-19T18:53:15.711Z,1.60
2023-02-19T18:55:43.087Z,1.80
2023-02-19T18:58:10.364Z,1.50
2023-02-19T19:00:37.662Z,1.75
2023-02-19T19:03:05.205Z,1.40
2023-02-19T19:05:32.626Z,1.10
2023-02-19T19:08:01.863Z,0.75
2023-02-19T19:10:29.979Z,0.70
2023-02-19T19:12:57.827Z,0.85
2023-02-19T19:15:25.489Z,0.80
2023-02-19T19:17:52.816Z,0.75
2023-02-19T19:20:21.151Z,0.82
2023-02-19T19:22:52.332Z,1.07
2023-02-19T19:25:20.420Z,1.20
2023-02-19T19:27:47.770Z,1.23
2023-02-19T19:30:15.242Z,0.85
2023-02-19T19:32:42.592Z,0.70
2023-02-19T19:35:10.129Z,0.57
2023-02-19T19:37:37.385Z,0.65
2023-02-19T19:40:05.444Z,0.50
2023-02-19T19:42:32.755Z,0.50
2023-02-19T19:45:00.127Z,0.45
2023-02-19T19:47:27.501Z,0.70
2023-02-19T19:49:54.965Z,0.50
2023-02-19T19:52:22.236Z,0.65
2023-02-19T19:54:54.080Z,0.70
2023-02-19T19:57:21.499Z,0.52
2023-02-19T19:59:51.159Z,0.50
2023-02-19T20:02:18.795Z,0.50
2023-02-19T20:04:46.095Z,0.57
2023-02-19T20:07:13.398Z,0.50
2023-02-19T20:09:40.640Z,0.50
2023-02-19T20:12:08.211Z,0.53
2023-02-19T20:14:35.532Z,0.50
2023-02-19T20:17:02.907Z,0.50
2023-02-19T20:19:30.329Z,0.50
2023-02-19T20:21:57.689Z,0.43
2023-02-19T20:24:26.232Z,0.50
2023-02-19T20:26:53.896Z,0.60
2023-02-19T20:29:21.150Z,0.60
2023-02-19T20:31:49.421Z,0.40
2023-02-19T20:34:16.960Z,0.60
2023-02-19T20:36:45.175Z,0.50
2023-02-19T20:39:12.454Z,0.50
2023-02-19T20:41:39.861Z,0.40
2023-02-19T20:44:07.176Z,0.60
2023-02-19T20:46:40.966Z,0.40
2023-02-19T20:49:08.325Z,0.60
2023-02-19T20:51:50.148Z,0.50
2023-02-19T20:54:18.192Z,0.32
2023-02-19T20:56:49.735Z,0.60
2023-02-19T20:59:17.321Z,1.10
2023-02-19T21:01:44.665Z,0.50
2023-02-19T21:04:12.171Z,0.65
2023-02-19T21:06:39.760Z,0.73
2023-02-19T21:09:07.161Z,0.68
2023-02-19T21:11:35.840Z,0.90
2023-02-19T21:14:03.195Z,1.07
2023-02-19T21:16:31.061Z,0.90
2023-02-19T21:18:58.639Z,0.77
2023-02-19T21:21:26.404Z,0.70
2023-02-19T21:23:54.537Z,0.70
2023-02-19T21:26:21.913Z,0.70
2023-02-19T21:28:52.607Z,0.50
2023-02-19T21:31:20.611Z,0.50
2023-02-19T21:33:47.912Z,0.50
2023-02-19T21:36:15.401Z,0.55
2023-02-19T21:38:42.616Z,0.50
2023-02-19T21:41:09.925Z,0.63
2023-02-19T21:43:37.225Z,0.52
2023-02-19T21:46:04.789Z,0.40
2023-02-19T21:48:32.054Z,0.57
2023-02-19T21:50:59.461Z,0.50
2023-02-19T21:53:26.682Z,0.50
2023-02-19T21:55:58.762Z,0.75
2023-02-19T21:58:26.615Z,0.73
2023-02-19T22:00:54.263Z,0.60
2023-02-19T22:03:21.736Z,0.60
2023-02-19T22:05:49.007Z,0.60
2023-02-19T22:08:17.565Z,0.57
2023-02-19T22:10:44.846Z,0.50
2023-02-19T22:13:12.276Z,0.50
2023-02-19T22:15:39.522Z,0.60
2023-02-19T22:18:06.911Z,0.50
2023-02-19T22:20:34.828Z,0.50
2023-02-19T22:23:02.138Z,0.47
2023-02-19T22:25:29.378Z,0.60
2023-02-19T22:27:57.252Z,0.60
2023-02-19T22:30:25.658Z,0.70
2023-02-19T22:32:53.060Z,0.77
2023-02-19T22:35:20.409Z,0.57
2023-02-19T22:37:47.783Z,0.60
2023-02-19T22:40:15.108Z,0.73
2023-02-19T22:42:42.563Z,0.80
2023-02-19T22:45:11.090Z,0.60
2023-02-19T22:47:40.051Z,0.60
2023-02-19T22:50:07.814Z,0.70
2023-02-19T22:52:35.147Z,0.80
2023-02-19T22:55:02.504Z,0.60
2023-02-19T22:57:29.845Z,0.65
2023-02-19T22:59:57.116Z,0.70
2023-02-19T23:02:24.424Z,1.40
2023-02-19T23:04:51.709Z,1.57
2023-02-19T23:07:18.993Z,1.60
2023-02-19T23:09:46.400Z,1.83
2023-02-19T23:12:13.799Z,1.65
2023-02-19T23:14:41.026Z,2.22
2023-02-19T23:17:08.317Z,2.23
2023-02-19T23:19:35.731Z,2.22
2023-02-19T23:22:03.310Z,1.80
2023-02-19T23:24:30.680Z,1.75
2023-02-19T23:26:59.739Z,2.20
2023-02-19T23:29:27.480Z,1.77
2023-02-19T23:31:54.979Z,2.22
2023-02-19T23:34:22.544Z,2.00
2023-02-19T23:36:50.118Z,2.42
2023-02-19T23:39:19.142Z,2.80
2023-02-19T23:41:47.863Z,1.73
2023-02-19T23:44:15.595Z,2.60
2023-02-19T23:46:43.076Z,2.20
2023-02-19T23:49:10.656Z,2.50
2023-02-19T23:51:38.118Z,2.40
2023-02-19T23:54:05.414Z,1.90
2023-02-19T23:56:32.814Z,1.90
2023-02-19T23:59:00.058Z,1.92
